createdAt,value
2022-10-04T00:00:50.794Z,42.75
2022-10-04T00:01:50.896Z,42.35
2022-10-04T00:02:50.802Z,42.35
2022-10-04T00:03:50.766Z,42.25
2022-10-04T00:04:50.755Z,42.25
2022-10-04T00:05:50.738Z,42.35
2022-10-04T00:06:50.726Z,42.45
2022-10-04T00:07:50.716Z,42.35
2022-10-04T00:08:50.703Z,42.15
2022-10-04T00:09:50.695Z,42.35
2022-10-04T00:10:50.688Z,42.15
2022-10-04T00:11:50.670Z,42.25
2022-10-04T00:12:50.659Z,42.25
2022-10-04T00:13:50.648Z,42.35
2022-10-04T00:14:50.636Z,42.35
2022-10-04T00:15:50.697Z,42.45
2022-10-04T00:16:50.642Z,42.15
2022-10-04T00:17:50.603Z,42.25
2022-10-04T00:18:50.592Z,42.35
2022-10-04T00:19:50.591Z,42.35
2022-10-04T00:20:50.771Z,42.35
2022-10-04T00:21:50.570Z,42.35
2022-10-04T00:22:50.563Z,42.15
2022-10-04T00:23:50.555Z,42.15
2022-10-04T00:24:50.523Z,42.25
2022-10-04T00:25:50.513Z,42.25
2022-10-04T00:26:50.502Z,42.25
2022-10-04T00:27:50.578Z,42.25
2022-10-04T00:28:50.485Z,42.45
2022-10-04T00:29:50.469Z,42.25
2022-10-04T00:30:50.456Z,42.15
2022-10-04T00:31:50.558Z,42.25
2022-10-04T00:32:50.434Z,42.25
2022-10-04T00:33:50.423Z,42.35
2022-10-04T00:34:50.432Z,42.25
2022-10-04T00:35:50.399Z,42.15
2022-10-04T00:36:50.388Z,42.45
2022-10-04T00:37:50.377Z,42.25
2022-10-04T00:38:50.371Z,42.25
2022-10-04T00:39:50.356Z,42.25
2022-10-04T00:40:50.366Z,42.15
2022-10-04T00:41:50.332Z,42.25
2022-10-04T00:42:50.320Z,42.35
2022-10-04T00:43:50.309Z,42.25
2022-10-04T00:44:50.301Z,42.35
2022-10-04T00:45:50.343Z,42.25
2022-10-04T00:46:50.281Z,42.25
2022-10-04T00:47:50.284Z,42.05
2022-10-04T00:48:50.256Z,42.15
2022-10-04T00:49:50.242Z,42.35
2022-10-04T00:50:50.231Z,42.35
2022-10-04T00:51:50.218Z,42.25
2022-10-04T00:52:50.238Z,42.45
2022-10-04T00:53:50.200Z,41.96
2022-10-04T00:54:50.187Z,42.05
2022-10-04T00:55:50.175Z,42.25
2022-10-04T00:56:50.162Z,42.45
2022-10-04T00:57:50.151Z,42.25
2022-10-04T00:58:50.162Z,42.25
2022-10-04T00:59:50.129Z,42.35
2022-10-04T01:00:50.205Z,42.35
2022-10-04T01:01:50.132Z,42.45
2022-10-04T01:02:50.095Z,42.45
2022-10-04T01:03:50.102Z,42.15
2022-10-04T01:04:50.078Z,42.35
2022-10-04T01:05:50.062Z,42.25
2022-10-04T01:06:50.051Z,41.96
2022-10-04T01:07:50.039Z,42.45
2022-10-04T01:08:50.027Z,42.18
2022-10-04T01:09:50.027Z,42.15
2022-10-04T01:10:50.011Z,42.45
2022-10-04T01:11:49.993Z,42.35
2022-10-04T01:12:49.985Z,41.96
2022-10-04T01:13:49.973Z,42.45
2022-10-04T01:14:49.960Z,42.15
2022-10-04T01:15:49.981Z,42.15
2022-10-04T01:16:49.944Z,42.15
2022-10-04T01:17:49.927Z,42.55
2022-10-04T01:18:49.915Z,42.05
2022-10-04T01:19:49.925Z,42.35
2022-10-04T01:20:49.896Z,42.15
2022-10-04T01:21:49.881Z,42.15
2022-10-04T01:22:49.875Z,42.35
2022-10-04T01:23:49.857Z,41.96
2022-10-04T01:24:49.853Z,42.35
2022-10-04T01:25:49.835Z,42.35
2022-10-04T01:26:49.823Z,42.15
2022-10-04T01:27:49.856Z,42.15
2022-10-04T01:28:49.817Z,42.05
2022-10-04T01:29:51.723Z,42.05
2022-10-04T01:30:49.780Z,42.35
2022-10-04T01:31:49.844Z,42.05
2022-10-04T01:32:49.756Z,42.15
2022-10-04T01:33:49.745Z,42.15
2022-10-04T01:34:49.765Z,42.15
2022-10-04T01:35:49.742Z,42.55
2022-10-04T01:36:49.712Z,42.15
2022-10-04T01:37:49.700Z,42.05
2022-10-04T01:38:49.689Z,42.55
2022-10-04T01:39:49.678Z,41.96
2022-10-04T01:40:49.672Z,41.97
2022-10-04T01:41:49.654Z,42.15
2022-10-04T01:42:49.646Z,42.15
2022-10-04T01:43:49.633Z,42.05
2022-10-04T01:44:49.622Z,41.96
2022-10-04T01:45:49.610Z,42.15
2022-10-04T01:46:49.700Z,42.05
2022-10-04T01:47:49.588Z,41.96
2022-10-04T01:48:49.576Z,42.45
2022-10-04T01:49:49.565Z,42.18
2022-10-04T01:50:49.556Z,42.15
2022-10-04T01:51:49.561Z,42.55
2022-10-04T01:52:49.537Z,42.15
2022-10-04T01:53:49.519Z,41.96
2022-10-04T01:54:49.508Z,42.15
2022-10-04T01:55:49.497Z,42.55
2022-10-04T01:56:49.486Z,42.15
2022-10-04T01:57:49.476Z,42.15
2022-10-04T01:58:49.472Z,42.15
2022-10-04T01:59:49.451Z,42.45
2022-10-04T02:00:49.473Z,42.07
2022-10-04T02:01:49.430Z,41.96
2022-10-04T02:02:49.418Z,42.15
2022-10-04T02:03:49.407Z,42.15
2022-10-04T02:04:49.537Z,42.15
2022-10-04T02:05:49.384Z,41.96
2022-10-04T02:06:49.373Z,41.96
2022-10-04T02:07:49.378Z,41.96
2022-10-04T02:08:49.354Z,41.96
2022-10-04T02:09:49.340Z,42.15
2022-10-04T02:10:49.343Z,41.96
2022-10-04T02:11:49.317Z,42.15
2022-10-04T02:12:49.305Z,42.15
2022-10-04T02:13:49.298Z,42.15
2022-10-04T02:14:49.282Z,42.15
2022-10-04T02:15:49.308Z,42.15
2022-10-04T02:16:49.291Z,42.15
2022-10-04T02:17:49.250Z,42.18
2022-10-04T02:18:49.249Z,42.15
2022-10-04T02:19:49.226Z,42.45
2022-10-04T02:20:49.215Z,42.15
2022-10-04T02:21:49.204Z,42.15
2022-10-04T02:22:49.199Z,42.15
2022-10-04T02:23:49.204Z,42.05
2022-10-04T02:24:49.176Z,42.57
2022-10-04T02:25:49.159Z,42.15
2022-10-04T02:26:49.149Z,42.55
2022-10-04T02:27:49.137Z,41.96
2022-10-04T02:28:49.131Z,42.55
2022-10-04T02:29:49.113Z,42.15
2022-10-04T02:30:49.102Z,42.15
2022-10-04T02:31:49.161Z,42.15
2022-10-04T02:32:49.081Z,42.15
2022-10-04T02:33:49.070Z,42.05
2022-10-04T02:34:49.079Z,41.96
2022-10-04T02:35:49.045Z,42.15
2022-10-04T02:36:49.035Z,41.96
2022-10-04T02:37:49.024Z,42.05
2022-10-04T02:38:49.016Z,42.25
2022-10-04T02:39:49.021Z,42.35
2022-10-04T02:40:49.005Z,42.05
2022-10-04T02:41:48.982Z,42.45
2022-10-04T02:42:48.967Z,42.55
2022-10-04T02:43:48.957Z,42.35
2022-10-04T02:44:48.944Z,42.45
2022-10-04T02:45:48.932Z,42.15
2022-10-04T02:46:49.024Z,42.25
2022-10-04T02:47:48.910Z,42.55
2022-10-04T02:48:48.900Z,42.47
2022-10-04T02:49:48.889Z,41.96
2022-10-04T02:50:48.876Z,42.15
2022-10-04T02:51:48.865Z,42.55
2022-10-04T02:52:48.876Z,42.25
2022-10-04T02:53:48.843Z,42.35
2022-10-04T02:54:48.831Z,42.15
2022-10-04T02:55:48.840Z,42.35
2022-10-04T02:56:48.809Z,42.15
2022-10-04T02:57:48.799Z,42.05
2022-10-04T02:58:48.792Z,42.35
2022-10-04T02:59:48.775Z,42.15
2022-10-04T03:00:48.829Z,42.15
2022-10-04T03:01:48.858Z,42.45
2022-10-04T03:02:48.835Z,42.15
2022-10-04T03:03:48.730Z,42.35
2022-10-04T03:04:48.725Z,42.05
2022-10-04T03:05:48.707Z,42.25
2022-10-04T03:06:48.695Z,42.25
2022-10-04T03:07:48.685Z,42.15
2022-10-04T03:08:48.674Z,42.45
2022-10-04T03:09:48.664Z,42.55
2022-10-04T03:10:48.657Z,42.15
2022-10-04T03:11:48.741Z,42.25
2022-10-04T03:12:48.628Z,42.25
2022-10-04T03:13:48.617Z,42.35
2022-10-04T03:14:48.606Z,42.05
2022-10-04T03:15:48.624Z,42.05
2022-10-04T03:16:48.601Z,42.05
2022-10-04T03:17:48.574Z,42.25
2022-10-04T03:18:48.561Z,42.25
2022-10-04T03:19:48.549Z,42.25
2022-10-04T03:20:48.541Z,42.35
2022-10-04T03:21:48.531Z,42.25
2022-10-04T03:22:48.546Z,42.05
2022-10-04T03:23:48.504Z,42.05
2022-10-04T03:24:48.493Z,42.15
2022-10-04T03:25:48.482Z,42.18
2022-10-04T03:26:48.470Z,42.45
2022-10-04T03:27:48.479Z,42.05
2022-10-04T03:28:48.457Z,42.35
2022-10-04T03:29:48.437Z,42.25
2022-10-04T03:30:48.425Z,41.96
2022-10-04T03:31:48.471Z,42.35
2022-10-04T03:32:48.402Z,42.25
2022-10-04T03:33:48.392Z,42.35
2022-10-04T03:34:48.387Z,42.25
2022-10-04T03:35:48.369Z,42.25
2022-10-04T03:36:48.357Z,42.35
2022-10-04T03:37:48.347Z,42.35
2022-10-04T03:38:48.336Z,42.35
2022-10-04T03:39:48.326Z,42.35
2022-10-04T03:40:48.334Z,42.45
2022-10-04T03:41:48.301Z,42.25
2022-10-04T03:42:48.291Z,42.15
2022-10-04T03:43:48.295Z,42.45
2022-10-04T03:44:48.267Z,42.18
2022-10-04T03:45:48.313Z,42.35
2022-10-04T03:46:48.251Z,42.45
2022-10-04T03:47:48.233Z,42.35
2022-10-04T03:48:48.224Z,42.15
2022-10-04T03:49:50.832Z,42.07
2022-10-04T03:50:48.200Z,42.45
2022-10-04T03:51:48.188Z,42.35
2022-10-04T03:52:48.224Z,42.05
2022-10-04T03:53:48.166Z,42.37
2022-10-04T03:54:48.154Z,42.05
2022-10-04T03:55:48.142Z,42.18
2022-10-04T03:56:48.131Z,42.35
2022-10-04T03:57:48.121Z,42.05
2022-10-04T03:58:48.125Z,42.15
2022-10-04T03:59:48.121Z,42.15
2022-10-04T04:00:48.149Z,42.15
2022-10-04T04:01:48.102Z,42.15
2022-10-04T04:02:48.127Z,42.15
2022-10-04T04:03:48.053Z,41.96
2022-10-04T04:04:48.050Z,42.05
2022-10-04T04:05:48.030Z,42.18
2022-10-04T04:06:48.019Z,42.25
2022-10-04T04:07:48.007Z,42.15
2022-10-04T04:08:47.999Z,42.25
2022-10-04T04:09:47.985Z,42.15
2022-10-04T04:10:48.023Z,42.27
2022-10-04T04:11:47.962Z,42.27
2022-10-04T04:12:47.959Z,41.96
2022-10-04T04:13:47.940Z,42.25
2022-10-04T04:14:47.928Z,41.96
2022-10-04T04:15:47.941Z,42.25
2022-10-04T04:16:47.926Z,42.25
2022-10-04T04:17:47.897Z,42.25
2022-10-04T04:18:47.885Z,42.25
2022-10-04T04:19:47.874Z,42.25
2022-10-04T04:20:47.866Z,42.25
2022-10-04T04:21:47.849Z,42.15
2022-10-04T04:22:47.854Z,42.35
2022-10-04T04:23:47.827Z,42.15
2022-10-04T04:24:47.817Z,41.97
2022-10-04T04:25:47.807Z,42.27
2022-10-04T04:26:47.797Z,42.18
2022-10-04T04:27:47.802Z,42.15
2022-10-04T04:28:47.785Z,42.15
2022-10-04T04:29:47.759Z,42.25
2022-10-04T04:30:47.747Z,42.15
2022-10-04T04:31:47.825Z,42.25
2022-10-04T04:32:47.727Z,42.35
2022-10-04T04:33:47.718Z,42.37
2022-10-04T04:34:47.709Z,42.25
2022-10-04T04:35:47.691Z,42.35
2022-10-04T04:36:47.684Z,42.25
2022-10-04T04:37:47.669Z,42.25
2022-10-04T04:38:47.663Z,42.35
2022-10-04T04:39:47.647Z,42.27
2022-10-04T04:40:47.667Z,42.15
2022-10-04T04:41:50.551Z,42.35
2022-10-04T04:42:47.613Z,42.37
2022-10-04T04:43:47.602Z,42.35
2022-10-04T04:44:47.589Z,42.18
2022-10-04T04:45:55.073Z,42.35
2022-10-04T04:46:48.817Z,42.37
2022-10-04T04:47:47.574Z,42.27
2022-10-04T04:48:47.547Z,42.37
2022-10-04T04:49:47.535Z,42.35
2022-10-04T04:50:47.522Z,42.27
2022-10-04T04:51:47.513Z,42.35
2022-10-04T04:52:47.507Z,42.15
2022-10-04T04:53:47.491Z,42.18
2022-10-04T04:54:47.477Z,42.37
2022-10-04T04:56:03.379Z,42.15
2022-10-04T04:56:48.454Z,42.25
2022-10-04T04:57:47.443Z,42.25
2022-10-04T04:58:47.456Z,42.35
2022-10-04T04:59:47.422Z,42.25
2022-10-04T05:00:47.440Z,42.35
2022-10-04T05:01:47.448Z,42.35
2022-10-04T05:02:47.388Z,42.35
2022-10-04T05:03:47.394Z,42.37
2022-10-04T05:04:47.399Z,42.18
2022-10-04T05:05:47.356Z,42.37
2022-10-04T05:06:47.343Z,42.35
2022-10-04T05:07:47.332Z,42.37
2022-10-04T05:08:47.322Z,42.25
2022-10-04T05:09:47.309Z,42.27
2022-10-04T05:10:47.304Z,42.25
2022-10-04T05:11:47.288Z,42.15
2022-10-04T05:12:47.275Z,42.25
2022-10-04T05:13:47.264Z,42.25
2022-10-04T05:14:47.252Z,42.27
2022-10-04T05:15:47.240Z,42.27
2022-10-04T05:16:47.375Z,42.18
2022-10-04T05:17:47.219Z,42.35
2022-10-04T05:18:47.214Z,42.35
2022-10-04T05:19:47.211Z,42.35
2022-10-04T05:20:47.185Z,42.18
2022-10-04T05:21:47.627Z,42.18
2022-10-04T05:22:47.182Z,42.37
2022-10-04T05:23:47.153Z,42.37
2022-10-04T05:24:47.141Z,42.18
2022-10-04T05:25:47.129Z,42.15
2022-10-04T05:26:47.117Z,42.35
2022-10-04T05:27:47.105Z,42.37
2022-10-04T05:28:47.101Z,42.27
2022-10-04T05:29:47.082Z,42.15
2022-10-04T05:30:47.072Z,42.15
2022-10-04T05:31:47.145Z,42.35
2022-10-04T05:32:47.049Z,42.18
2022-10-04T05:33:47.038Z,42.27
2022-10-04T05:34:47.044Z,42.15
2022-10-04T05:35:47.036Z,41.96
2022-10-04T05:36:47.009Z,42.15
2022-10-04T05:37:46.993Z,42.18
2022-10-04T05:38:46.981Z,42.05
2022-10-04T05:39:46.975Z,42.07
2022-10-04T05:40:46.991Z,42.15
2022-10-04T05:41:47.348Z,42.18
2022-10-04T05:42:46.938Z,42.18
2022-10-04T05:43:46.927Z,42.18
2022-10-04T05:44:46.914Z,42.18
2022-10-04T05:45:46.955Z,42.15
2022-10-04T05:46:46.897Z,41.96
2022-10-04T05:47:46.880Z,42.15
2022-10-04T05:48:46.867Z,42.45
2022-10-04T05:49:46.857Z,42.15
2022-10-04T05:50:46.844Z,42.15
2022-10-04T05:51:46.852Z,42.18
2022-10-04T05:52:46.830Z,42.35
2022-10-04T05:53:46.814Z,42.18
2022-10-04T05:54:46.802Z,42.45
2022-10-04T05:55:46.799Z,42.45
2022-10-04T05:56:46.779Z,42.18
2022-10-04T05:57:46.767Z,42.15
2022-10-04T05:58:46.776Z,42.35
2022-10-04T05:59:46.744Z,42.05
2022-10-04T06:00:46.734Z,42.05
2022-10-04T06:01:47.189Z,42.45
2022-10-04T06:02:46.783Z,42.35
2022-10-04T06:03:46.698Z,42.35
2022-10-04T06:04:46.710Z,42.15
2022-10-04T06:05:46.676Z,42.37
2022-10-04T06:06:46.663Z,42.18
2022-10-04T06:07:46.700Z,42.35
2022-10-04T06:08:46.642Z,42.15
2022-10-04T06:09:46.633Z,42.15
2022-10-04T06:10:46.639Z,41.96
2022-10-04T06:11:46.726Z,42.35
2022-10-04T06:12:46.597Z,42.15
2022-10-04T06:13:46.586Z,42.27
2022-10-04T06:14:46.574Z,42.25
2022-10-04T06:15:46.569Z,42.25
2022-10-04T06:16:46.605Z,42.25
2022-10-04T06:17:46.543Z,42.25
2022-10-04T06:18:46.530Z,42.25
2022-10-04T06:19:46.517Z,42.35
2022-10-04T06:20:46.506Z,42.25
2022-10-04T06:21:46.495Z,42.35
2022-10-04T06:22:46.489Z,42.35
2022-10-04T06:23:46.494Z,42.35
2022-10-04T06:24:46.461Z,42.35
2022-10-04T06:25:46.452Z,42.15
2022-10-04T06:26:46.439Z,42.45
2022-10-04T06:27:46.427Z,42.35
2022-10-04T06:28:46.422Z,42.75
2022-10-04T06:29:46.405Z,42.25
2022-10-04T06:30:46.403Z,42.35
2022-10-04T06:31:46.770Z,42.75
2022-10-04T06:32:46.371Z,42.65
2022-10-04T06:33:46.360Z,42.55
2022-10-04T06:34:46.354Z,42.65
2022-10-04T06:35:46.337Z,42.45
2022-10-04T06:36:46.326Z,42.55
2022-10-04T06:37:46.314Z,42.55
2022-10-04T06:38:46.304Z,42.45
2022-10-04T06:39:46.307Z,42.45
2022-10-04T06:40:46.287Z,42.35
2022-10-04T06:41:46.511Z,42.45
2022-10-04T06:42:46.258Z,42.35
2022-10-04T06:43:46.246Z,42.35
2022-10-04T06:44:46.708Z,42.45
2022-10-04T06:45:46.328Z,42.35
2022-10-04T06:46:46.220Z,42.55
2022-10-04T06:47:46.201Z,42.65
2022-10-04T06:48:46.191Z,42.65
2022-10-04T06:49:46.179Z,42.55
2022-10-04T06:50:46.169Z,42.35
2022-10-04T06:51:46.372Z,42.55
2022-10-04T06:52:46.153Z,42.55
2022-10-04T06:53:46.133Z,42.75
2022-10-04T06:54:46.123Z,42.75
2022-10-04T06:55:46.232Z,42.63
2022-10-04T06:56:46.099Z,42.15
2022-10-04T06:57:46.088Z,42.25
2022-10-04T06:58:46.084Z,42.25
2022-10-04T06:59:46.071Z,42.15
2022-10-04T07:00:46.073Z,42.15
2022-10-04T07:01:46.710Z,42.25
2022-10-04T07:02:46.088Z,42.25
2022-10-04T07:03:51.250Z,42.15
2022-10-04T07:05:14.110Z,42.05
2022-10-04T07:05:46.997Z,41.96
2022-10-04T07:06:46.011Z,42.35
2022-10-04T07:07:45.998Z,42.05
2022-10-04T07:08:45.964Z,41.85
2022-10-04T07:09:45.954Z,41.85
2022-10-04T07:10:45.947Z,41.96
2022-10-04T07:11:46.323Z,42.35
2022-10-04T07:12:45.918Z,41.85
2022-10-04T07:13:45.908Z,42.55
2022-10-04T07:14:45.896Z,42.65
2022-10-04T07:15:45.992Z,42.85
2022-10-04T07:16:45.880Z,42.05
2022-10-04T07:17:45.865Z,42.65
2022-10-04T07:18:45.851Z,42.65
2022-10-04T07:19:45.841Z,42.95
2022-10-04T07:20:45.828Z,42.95
2022-10-04T07:21:46.851Z,42.95
2022-10-04T07:22:45.813Z,42.45
2022-10-04T07:23:45.794Z,42.85
2022-10-04T07:24:45.783Z,42.85
2022-10-04T07:25:45.773Z,42.05
2022-10-04T07:26:45.767Z,43.05
2022-10-04T07:27:45.882Z,43.05
2022-10-04T07:28:45.754Z,42.85
2022-10-04T07:29:45.729Z,43.25
2022-10-04T07:30:45.796Z,42.45
2022-10-04T07:31:46.199Z,42.85
2022-10-04T07:32:45.695Z,42.75
2022-10-04T07:33:45.682Z,42.55
2022-10-04T07:34:45.676Z,42.85
2022-10-04T07:35:45.662Z,42.75
2022-10-04T07:36:45.648Z,42.75
2022-10-04T07:37:45.637Z,42.65
2022-10-04T07:38:45.625Z,42.95
2022-10-04T07:39:45.613Z,42.95
2022-10-04T07:40:45.610Z,42.65
2022-10-04T07:41:45.920Z,42.65
2022-10-04T07:42:45.580Z,43.05
2022-10-04T07:43:45.592Z,42.95
2022-10-04T07:44:45.557Z,42.65
2022-10-04T07:45:45.612Z,42.75
2022-10-04T07:46:45.551Z,42.95
2022-10-04T07:47:45.523Z,42.65
2022-10-04T07:48:45.512Z,42.55
2022-10-04T07:49:45.499Z,42.65
2022-10-04T07:50:45.489Z,42.65
2022-10-04T07:51:45.936Z,42.85
2022-10-04T07:52:45.478Z,42.65
2022-10-04T07:53:45.461Z,42.75
2022-10-04T07:54:45.447Z,42.65
2022-10-04T07:55:45.433Z,42.65
2022-10-04T07:56:45.421Z,42.83
2022-10-04T07:57:45.409Z,42.75
2022-10-04T07:58:46.140Z,42.85
2022-10-04T07:59:45.418Z,43.25
2022-10-04T08:00:45.375Z,42.75
2022-10-04T08:01:45.722Z,42.75
2022-10-04T08:02:45.482Z,43.25
2022-10-04T08:03:45.345Z,42.95
2022-10-04T08:04:45.338Z,42.65
2022-10-04T08:05:45.320Z,43.05
2022-10-04T08:06:45.729Z,42.73
2022-10-04T08:07:45.299Z,42.65
2022-10-04T08:08:45.292Z,42.95
2022-10-04T08:09:45.274Z,42.75
2022-10-04T08:10:45.302Z,42.75
2022-10-04T08:11:45.251Z,43.15
2022-10-04T08:12:45.241Z,42.95
2022-10-04T08:13:45.230Z,43.05
2022-10-04T08:14:45.218Z,43.05
2022-10-04T08:15:45.315Z,43.03
2022-10-04T08:16:45.679Z,42.95
2022-10-04T08:17:45.184Z,43.15
2022-10-04T08:18:45.172Z,43.25
2022-10-04T08:19:45.162Z,42.85
2022-10-04T08:20:45.150Z,42.75
2022-10-04T08:21:45.140Z,43.05
2022-10-04T08:22:45.135Z,42.95
2022-10-04T08:23:45.122Z,42.73
2022-10-04T08:24:45.105Z,43.25
2022-10-04T08:25:45.094Z,43.23
2022-10-04T08:26:45.375Z,42.83
2022-10-04T08:27:45.071Z,43.23
2022-10-04T08:28:45.065Z,43.15
2022-10-04T08:29:45.048Z,43.15
2022-10-04T08:30:45.068Z,43.35
2022-10-04T08:31:45.045Z,43.13
2022-10-04T08:32:45.015Z,43.13
2022-10-04T08:33:45.003Z,43.65
2022-10-04T08:34:45.009Z,43.25
2022-10-04T08:35:44.981Z,43.55
2022-10-04T08:36:45.479Z,43.35
2022-10-04T08:37:44.960Z,43.75
2022-10-04T08:38:44.947Z,43.55
2022-10-04T08:39:44.935Z,43.63
2022-10-04T08:40:44.931Z,43.55
2022-10-04T08:41:44.912Z,43.03
2022-10-04T08:42:44.901Z,43.45
2022-10-04T08:43:44.900Z,43.15
2022-10-04T08:44:44.879Z,43.03
2022-10-04T08:45:44.870Z,43.52
2022-10-04T08:46:45.228Z,43.23
2022-10-04T08:47:44.867Z,43.03
2022-10-04T08:48:44.833Z,42.83
2022-10-04T08:49:44.825Z,43.33
2022-10-04T08:50:44.813Z,43.33
2022-10-04T08:51:44.816Z,43.33
2022-10-04T08:52:44.794Z,43.13
2022-10-04T08:53:44.777Z,43.33
2022-10-04T08:54:44.770Z,43.52
2022-10-04T08:55:44.754Z,43.33
2022-10-04T08:56:45.256Z,43.33
2022-10-04T08:57:44.731Z,43.03
2022-10-04T08:58:44.727Z,43.33
2022-10-04T08:59:44.710Z,43.13
2022-10-04T09:00:44.699Z,43.63
2022-10-04T09:01:44.710Z,43.03
2022-10-04T09:02:44.710Z,43.52
2022-10-04T09:03:44.681Z,43.13
2022-10-04T09:04:44.660Z,43.13
2022-10-04T09:05:44.641Z,43.13
2022-10-04T09:06:45.925Z,43.13
2022-10-04T09:07:44.619Z,43.23
2022-10-04T09:08:44.618Z,42.83
2022-10-04T09:09:44.633Z,42.73
2022-10-04T09:10:44.599Z,43.03
2022-10-04T09:11:44.576Z,42.51
2022-10-04T09:12:44.562Z,42.71
2022-10-04T09:13:44.553Z,42.91
2022-10-04T09:14:44.540Z,42.91
2022-10-04T09:15:44.571Z,42.71
2022-10-04T09:16:44.969Z,42.81
2022-10-04T09:17:44.505Z,42.51
2022-10-04T09:18:44.502Z,42.81
2022-10-04T09:19:44.517Z,43.29
2022-10-04T09:20:44.472Z,43.01
2022-10-04T09:21:44.465Z,43.01
2022-10-04T09:22:44.478Z,43.01
2022-10-04T09:23:44.437Z,43.11
2022-10-04T09:24:44.428Z,42.61
2022-10-04T09:25:44.421Z,42.51
2022-10-04T09:26:44.922Z,42.81
2022-10-04T09:27:57.502Z,42.61
2022-10-04T09:28:45.386Z,42.91
2022-10-04T09:29:44.371Z,43.01
2022-10-04T09:30:44.392Z,42.81
2022-10-04T09:31:44.347Z,42.71
2022-10-04T09:32:44.336Z,42.69
2022-10-04T09:33:44.324Z,42.41
2022-10-04T09:34:44.319Z,42.09
2022-10-04T09:35:44.325Z,42.29
2022-10-04T09:36:44.711Z,41.99
2022-10-04T09:37:44.279Z,42.19
2022-10-04T09:40:01.213Z,42.39
2022-10-04T09:41:01.196Z,41.97
2022-10-04T09:42:01.185Z,42.07
2022-10-04T09:43:01.173Z,42.49
2022-10-04T09:44:01.165Z,42.09
2022-10-04T09:45:01.151Z,42.07
2022-10-04T09:46:01.191Z,42.27
2022-10-04T09:47:01.191Z,42.07
2022-10-04T09:48:01.117Z,41.97
2022-10-04T09:49:01.105Z,41.67
2022-10-04T09:50:01.096Z,41.87
2022-10-04T09:51:01.163Z,41.97
2022-10-04T09:52:01.081Z,41.97
2022-10-04T09:53:01.061Z,41.67
2022-10-04T09:54:01.050Z,41.87
2022-10-04T09:55:01.042Z,41.97
2022-10-04T09:56:01.029Z,42.07
2022-10-04T09:57:01.017Z,41.97
2022-10-04T09:58:01.010Z,42.07
2022-10-04T09:59:00.996Z,42.27
2022-10-04T10:00:00.984Z,42.07
2022-10-04T10:01:00.970Z,41.97
2022-10-04T10:02:01.042Z,42.17
2022-10-04T10:03:00.997Z,41.75
2022-10-04T10:04:00.945Z,41.77
2022-10-04T10:05:00.928Z,41.95
2022-10-04T10:06:00.915Z,42.07
2022-10-04T10:07:00.921Z,41.77
2022-10-04T10:08:00.892Z,42.27
2022-10-04T10:09:00.881Z,42.05
2022-10-04T10:10:00.876Z,41.77
2022-10-04T10:11:00.857Z,42.07
2022-10-04T10:12:00.851Z,41.85
2022-10-04T10:13:00.837Z,41.97
2022-10-04T10:14:00.826Z,41.85
2022-10-04T10:15:00.813Z,41.85
2022-10-04T10:16:00.875Z,42.05
2022-10-04T10:17:00.790Z,42.15
2022-10-04T10:18:00.779Z,41.95
2022-10-04T10:19:00.768Z,42.45
2022-10-04T10:20:00.756Z,41.36
2022-10-04T10:21:00.745Z,41.25
2022-10-04T10:22:00.759Z,41.66
2022-10-04T10:23:00.739Z,40.44
2022-10-04T10:24:00.711Z,40.64
2022-10-04T10:25:00.699Z,41.14
2022-10-04T10:26:00.688Z,41.14
2022-10-04T10:27:00.679Z,41.14
2022-10-04T10:28:00.706Z,40.94
2022-10-04T10:29:00.656Z,40.74
2022-10-04T10:30:00.643Z,40.64
2022-10-04T10:31:00.647Z,40.64
2022-10-04T10:32:00.621Z,41.04
2022-10-04T10:33:00.611Z,40.84
2022-10-04T10:34:00.615Z,41.14
2022-10-04T10:35:00.587Z,41.14
2022-10-04T10:36:00.577Z,40.64
2022-10-04T10:37:00.565Z,40.64
2022-10-04T10:38:04.446Z,40.74
2022-10-04T10:39:00.628Z,40.74
2022-10-04T10:40:00.537Z,40.54
2022-10-04T10:41:00.520Z,40.64
2022-10-04T10:42:00.509Z,40.94
2022-10-04T10:43:00.497Z,41.53
2022-10-04T10:44:00.486Z,41.74
2022-10-04T10:45:00.475Z,41.34
2022-10-04T10:46:00.469Z,41.04
2022-10-04T10:47:00.490Z,41.14
2022-10-04T10:48:00.441Z,41.44
2022-10-04T10:49:00.430Z,41.34
2022-10-04T10:50:00.419Z,41.44
2022-10-04T10:51:00.416Z,41.53
2022-10-04T10:52:00.404Z,40.74
2022-10-04T10:53:00.384Z,40.64
2022-10-04T10:54:00.379Z,40.44
2022-10-04T10:55:00.381Z,40.64
2022-10-04T10:56:00.351Z,40.74
2022-10-04T10:57:01.344Z,40.54
2022-10-04T10:58:00.327Z,41.14
2022-10-04T10:59:00.317Z,40.94
2022-10-04T11:00:00.322Z,40.74
2022-10-04T11:01:00.296Z,40.92
2022-10-04T11:02:00.361Z,40.72
2022-10-04T11:03:12.803Z,41.12
2022-10-04T11:04:01.298Z,40.72
2022-10-04T11:05:00.254Z,40.92
2022-10-04T11:06:00.261Z,41.02
2022-10-04T11:07:00.228Z,41.12
2022-10-04T11:08:00.216Z,41.02
2022-10-04T11:09:00.211Z,41.02
2022-10-04T11:10:00.193Z,41.12
2022-10-04T11:11:00.197Z,40.82
2022-10-04T11:12:00.171Z,41.02
2022-10-04T11:13:00.160Z,40.52
2022-10-04T11:14:00.148Z,40.72
2022-10-04T11:15:00.146Z,40.52
2022-10-04T11:16:00.198Z,40.52
2022-10-04T11:17:00.115Z,40.62
2022-10-04T11:18:00.116Z,40.82
2022-10-04T11:19:00.134Z,40.82
2022-10-04T11:20:00.122Z,40.72
2022-10-04T11:21:00.116Z,40.82
2022-10-04T11:22:00.067Z,40.52
2022-10-04T11:23:00.047Z,40.92
2022-10-04T11:24:00.047Z,41.02
2022-10-04T11:25:00.039Z,40.52
2022-10-04T11:26:00.019Z,41.02
2022-10-04T11:27:00.051Z,41.02
2022-10-04T11:28:00.041Z,41.12
2022-10-04T11:28:59.980Z,40.92
2022-10-04T11:29:59.970Z,40.82
2022-10-04T11:31:00.009Z,40.92
2022-10-04T11:31:59.948Z,40.82
2022-10-04T11:32:59.944Z,40.92
2022-10-04T11:33:59.924Z,41.12
2022-10-04T11:34:59.914Z,40.62
2022-10-04T11:35:59.903Z,40.62
2022-10-04T11:36:59.891Z,41.12
2022-10-04T11:37:59.877Z,41.12
2022-10-04T11:38:59.875Z,41.12
2022-10-04T11:39:59.857Z,40.62
2022-10-04T11:40:59.844Z,40.52
2022-10-04T11:41:59.834Z,41.22
2022-10-04T11:42:59.976Z,40.52
2022-10-04T11:43:59.812Z,40.62
2022-10-04T11:44:59.822Z,40.62
2022-10-04T11:45:59.789Z,40.62
2022-10-04T11:46:59.808Z,40.72
2022-10-04T11:47:59.766Z,40.62
2022-10-04T11:48:59.757Z,40.42
2022-10-04T11:49:59.744Z,40.52
2022-10-04T11:50:59.739Z,41.12
2022-10-04T11:52:02.324Z,40.42
2022-10-04T11:52:59.710Z,40.42
2022-10-04T11:53:59.702Z,40.82
2022-10-04T11:54:59.688Z,40.52
2022-10-04T11:55:59.677Z,40.42
2022-10-04T11:56:59.672Z,40.52
2022-10-04T11:57:59.658Z,40.42
2022-10-04T11:58:59.659Z,41.02
2022-10-04T11:59:59.633Z,41.71
2022-10-04T12:00:59.621Z,40.52
2022-10-04T12:01:59.608Z,41.12
2022-10-04T12:02:59.603Z,40.72
2022-10-04T12:03:59.764Z,41.12
2022-10-04T12:04:59.607Z,40.52
2022-10-04T12:05:59.565Z,41.12
2022-10-04T12:06:59.552Z,40.72
2022-10-04T12:07:59.541Z,40.62
2022-10-04T12:08:59.552Z,41.71
2022-10-04T12:10:01.056Z,40.62
2022-10-04T12:10:59.508Z,41.02
2022-10-04T12:11:59.497Z,41.31
2022-10-04T12:12:59.484Z,41.22
2022-10-04T12:13:59.473Z,41.02
2022-10-04T12:14:59.506Z,41.61
2022-10-04T12:15:59.513Z,41.31
2022-10-04T12:16:59.440Z,41.82
2022-10-04T12:17:59.431Z,41.52
2022-10-04T12:18:59.418Z,41.52
2022-10-04T12:19:59.408Z,41.02
2022-10-04T12:20:59.401Z,41.52
2022-10-04T12:21:59.384Z,41.71
2022-10-04T12:22:59.374Z,41.52
2022-10-04T12:23:59.363Z,41.71
2022-10-04T12:24:59.353Z,40.52
2022-10-04T12:25:59.339Z,41.31
2022-10-04T12:26:59.350Z,40.92
2022-10-04T12:27:59.354Z,40.42
2022-10-04T12:28:59.307Z,40.42
2022-10-04T12:29:59.295Z,40.62
2022-10-04T12:30:59.305Z,40.62
2022-10-04T12:31:59.362Z,41.12
2022-10-04T12:32:59.268Z,40.72
2022-10-04T12:33:59.251Z,40.90
2022-10-04T12:34:59.239Z,40.70
2022-10-04T12:35:59.227Z,40.70
2022-10-04T12:36:59.216Z,40.50
2022-10-04T12:37:59.204Z,41.09
2022-10-04T12:38:59.199Z,41.00
2022-10-04T12:39:59.183Z,41.00
2022-10-04T12:40:59.176Z,41.00
2022-10-04T12:41:59.161Z,41.00
2022-10-04T12:42:59.148Z,41.00
2022-10-04T12:43:59.139Z,41.09
2022-10-04T12:44:59.133Z,40.98
2022-10-04T12:45:59.144Z,41.00
2022-10-04T12:46:59.123Z,40.80
2022-10-04T12:47:59.092Z,40.80
2022-10-04T12:48:59.081Z,40.60
2022-10-04T12:49:59.070Z,41.00
2022-10-04T12:50:59.065Z,40.80
2022-10-04T12:51:59.048Z,41.09
2022-10-04T12:52:59.037Z,40.90
2022-10-04T12:53:59.025Z,41.00